hero-logo

Top 15 Knowers of CHK Chesapeake Energy Corp - 2017-07-25

Rank Fund Result (K)
1 Blue Ridge Capital L L C $12,830
2 Bridgeway Capital Management Inc $8,609
3 Caxton Associates Lp $7,219
4 Voloridge Investment Management Llc $6,898
5 Friess Associates Llc $2,575
6 Group One Trading L P $1,046
7 Jacobs Levy Equity Management Inc $898
8 Jafra Capital Management Lp $437
9 Akanthos Capital Management Llc $432
10 Crawford Lake Capital Management Llc $357
11 Elkhorn Investments Llc $274
12 Southeastern Asset Management Inc Tn $267
13 Jabre Capital Partners S A $216
14 Hutchin Hill Capital Lp $189
15 Seven Eight Capital Lp $85
Price Chart and News From Google Finance for CHK Chesapeake Energy Corp
Owner Date Shares Change Price Change Result (K)
10-15 Associates Inc 2017-03-31 2,866 $-1.08 $-3
Advantage Investment Management Llc 2017-03-31 9,708 $-1.08 $-10
Advisors Management Group Inc Adv 2017-03-31 0 $-1.08 $0
Akanthos Capital Management Llc 2017-03-31 -400,000 $-1.08 $432
Allsquare Wealth Management Llc 2017-03-31 0 $-1.08 $0
Amalgamated Bank 2017-03-31 958 $-1.08 $-1
Ancora Advisors Llc 2017-03-31 -4,000 $-1.08 $4
Aperio Group Llc 2017-03-31 34,172 $-1.08 $-36
Archford Capital Strategies Llc 2017-03-31 -500 $-1.08 $0
Bienville Capital Management Llc 2017-03-31 0 $-1.08 $0
Blair William Co Il 2017-03-31 2,119 $-1.08 $-2
Bluefin Trading Llc 2017-03-31 -73,186 $-1.08 $79
Blue Ridge Capital L L C 2017-03-31 -11,879,879 $-1.08 $12,830
Bokf Na 2017-03-31 2,138 $-1.08 $-2
Boston Private Wealth Llc 2017-03-31 -13,990 $-1.08 $15
Bridgeway Capital Management Inc 2017-03-31 -7,971,700 $-1.08 $8,609
B S Pension Fund Trustee Ltd Acting For The British Steel P 2017-03-31 -60,253 $-1.08 $65
California State Teachers Retirement System 2017-03-31 -56,200 $-1.08 $60
Capstone Financial Advisors Inc 2017-03-31 0 $-1.08 $0
Capwealth Advisors Llc 2017-03-31 -10,160 $-1.08 $10
Carlson Capital L P 2017-03-31 935,000 $-1.08 $-1,009
Caxton Associates Lp 2017-03-31 -6,684,500 $-1.08 $7,219
Cetera Advisor Networks Llc 2017-03-31 21,351 $-1.08 $-23
Cetera Advisors Llc 2017-03-31 8,148 $-1.08 $-8
Cmt Asset Management Ltd 2017-03-31 0 $-1.08 $0
Compagnie Lombard Odier Scma 2017-03-31 11,000 $-1.08 $-11
Corecommodity Management Llc 2017-03-31 1,088 $-1.08 $-1
Cornerstone Capital Management Holdings Llc 2017-03-31 -10,189 $-1.08 $11
Covey Capital Advisors Llc 2017-03-31 0 $-1.08 $0
Crawford Lake Capital Management Llc 2017-03-31 -330,567 $-1.08 $357
Css Llc Il 2017-03-31 48,256 $-1.08 $-52
D A Davidson Co 2017-03-31 -2,500 $-1.08 $2
Earnest Partners Llc 2017-03-31 -4,842 $-1.08 $5
Edmond De Rothschild Holding S A 2017-03-31 0 $-1.08 $0
Elkhorn Investments Llc 2017-03-31 -254,049 $-1.08 $274
Envestnet Asset Management Inc 2017-03-31 1,699 $-1.08 $-1
Fiera Capital Corp 2017-03-31 20,053 $-1.08 $-21
Florence Capital Advisors Llc 2017-03-31 0 $-1.08 $0
Focused Wealth Management Inc 2017-03-31 -25,300 $-1.08 $27
Friess Associates Llc 2017-03-31 -2,385,007 $-1.08 $2,575
Frontier Investment Mgmt Co 2017-03-31 0 $-1.08 $0
Glassman Wealth Services 2017-03-31 20 $-1.08 $0
Glen Harbor Capital Management Llc 2017-03-31 9,584 $-1.08 $-10
Greenwich Wealth Management Llc 2017-03-31 886 $-1.08 $0
Group One Trading L P 2017-03-31 -968,744 $-1.08 $1,046
Gsa Capital Partners Llp 2017-03-31 15,381 $-1.08 $-16
Guggenheim Capital Llc 2017-03-31 2,191,178 $-1.08 $-2,366
Highbridge Capital Management Llc 2017-03-31 681,355 $-1.08 $-735
Highlander Capital Management Llc 2017-03-31 0 $-1.08 $0
Horizon Kinetics Llc 2017-03-31 -57,284 $-1.08 $61
Hutchin Hill Capital Lp 2017-03-31 -175,000 $-1.08 $189
Hwg Holdings Lp 2017-03-31 0 $-1.08 $0
Ifp Advisors Inc 2017-03-31 -3,552 $-1.08 $3
Iht Wealth Management Llc 2017-03-31 0 $-1.08 $0
Jabre Capital Partners S A 2017-03-31 -200,000 $-1.08 $216
Jacobs Levy Equity Management Inc 2017-03-31 -831,552 $-1.08 $898
Jafra Capital Management Lp 2017-03-31 -404,939 $-1.08 $437
Jane Street Group Llc 2017-03-31 1,025,659 $-1.08 $-1,107
Kentucky Retirement Systems 2017-03-31 -5,253 $-1.08 $5
Kentucky Retirement Systems Insurance Trust Fund 2017-03-31 -3,536 $-1.08 $3
Krilogy Financial Llc 2017-03-31 0 $-1.08 $0
Ladenburg Thalmann Financial Services Inc 2017-03-31 14,452 $-1.08 $-15
Lee Financial Corp 2017-03-31 0 $-1.08 $0
Loomis Sayles Co L P 2017-03-31 0 $-1.08 $0
Marathon Trading Investment Management Llc 2017-03-31 -17,600 $-1.08 $19
Mark Asset Management Corp 2017-03-31 -11,832 $-1.08 $12
Mason Street Advisors Llc 2017-03-31 3,296 $-1.08 $-3
Moore Capital Management Lp 2017-03-31 -10,347 $-1.08 $11
Neuburgh Advisers Llc 2017-03-31 20,366 $-1.08 $-21
Northwestern Mutual Investment Management Company Llc 2017-03-31 68,382 $-1.08 $-73
Northwestern Mutual Wealth Management Co 2017-03-31 2,253 $-1.08 $-2
Paloma Partners Management Co 2017-03-31 -17,639 $-1.08 $19
Patriot Financial Group Insurance Agency Llc 2017-03-31 0 $-1.08 $0
Piedmont Investment Advisors Llc 2017-03-31 -2,121 $-1.08 $2
Pomelo Capital Llc 2017-03-31 253,000 $-1.08 $-273
Proficio Capital Partners Llc 2017-03-31 0 $-1.08 $0
Pt Asset Management Llc 2017-03-31 34,500 $-1.08 $-37
Public Employees Retirement System Of Ohio 2017-03-31 0 $-1.08 $0
Qcm Cayman Ltd 2017-03-31 73,020 $-1.08 $-78
Raymond James Associates 2017-03-31 30,408 $-1.08 $-32
Riverhead Capital Management Llc 2017-03-31 10,572 $-1.08 $-11
Robertson Opportunity Capital Llc 2017-03-31 0 $-1.08 $0
Salem Investment Counselors Inc 2017-03-31 -574 $-1.08 $0
Seven Eight Capital Lp 2017-03-31 -79,201 $-1.08 $85
Sir Capital Management L P 2017-03-31 948,100 $-1.08 $-1,023
Sns Financial Group Llc 2017-03-31 -28,330 $-1.08 $30
Southeast Asset Advisors Inc 2017-03-31 -11,500 $-1.08 $12
Southeastern Asset Management Inc Tn 2017-03-31 -247,998 $-1.08 $267
Sowell Financial Services Llc 2017-03-31 -1,200 $-1.08 $1
Squarepoint Ops Llc 2017-03-31 310,483 $-1.08 $-335
Steinberg Global Asset Management 2017-03-31 4,000 $-1.08 $-4
Sterling Capital Management Llc 2017-03-31 427,850 $-1.08 $-462
Stifel Financial Corp 2017-03-31 215,622 $-1.08 $-232
Two Sigma Securities Llc 2017-03-31 25,530 $-1.08 $-27
Tyers Asset Management Llc 2017-03-31 13,178 $-1.08 $-14
United Capital Financial Advisers Llc 2017-03-31 2,040 $-1.08 $-2
Veritable L P 2017-03-31 15,917 $-1.08 $-17
Voloridge Investment Management Llc 2017-03-31 -6,387,790 $-1.08 $6,898
Weiss Asset Management Lp 2017-03-31 -29,923 $-1.08 $32
Westside Investment Management Inc 2017-03-31 1,250 $-1.08 $-1
Westwood Holdings Group Inc 2017-03-31 504,570 $-1.08 $-544
Wexford Capital Lp 2017-03-31 10,500 $-1.08 $-11